メインページ
METAR-TAF:

METAR-TAF

空港 :

プンタアレナス, チリ

緯度: 53-00S, 経度: 070-51W, 海抜: 37m

現時点の気象観測

当レポートは26分前の06:00(UTC)に作成
西の風 20kt
気温 7°C
湿度 70%
気圧 988 hPa
視程10km以上
高度4000ftの雲は散在している

METAR: SCCI 140600Z 28020KT 9999 SCT040 07/02 Q0988 NOSIG

時間: 03:26 (06:26 UTC)

予報

当レポートは1時間51分前の04:35(UTC)に作成
予報は14日の 06時(UTC)から 15日の 06時(UTC)まで有効
西/北西の風 25kt、最大35ktの突風を伴う
視程: 9000m
高度3700ftの雲は散在している
弱いにわか雨
14日の 10時(UTC)から 14日の 12時(UTC)まで徐々に
西の風 20kt、最大32ktの突風を伴う
14日の 14時(UTC)から 14日の 22時(UTC)まで一時的に
視程: 7000m
高度3000ftの千切れ雲あり
弱いにわか雨
15日の 00時(UTC)から 15日の 02時(UTC)まで徐々に
西/北西の風 15kt
視程10km以上
高度4000ftの雲はほとんどない

TAF: SCCI 140435Z 1406/1506 29025G35KT 9000 -SHRA SCT037 TN06/1409Z TX12/1418Z BECMG 1410/1412 26020G32KT TEMPO 1414/1422 7000 -SHRA BKN030 BECMG 1500/1502 29015KT 9999 NSW FEW040

4,000以上の空港の気象観測と天気予報(METAR報とTAF報)

利用可能な観測所は地図上に黄色い丸と赤い丸で示す。

丸の上にカーソルを重ねると観測所名を参照できる。

次にクリックすると気象観測と天気予報を参照できる。

マップの切り替え:黒色「×」印の緑ボタンをクリックして拡大、「-」印の緑ボタンをクリックして縮小、緑色の三角印をクリックして隣りの地図に切り替え


METAR-TAF: